Terminal Aerodrome Forecast
Issued by NWS

Home | Current Version | Previous Version | Text Only | Print | Product List | Glossary On
Versions: 1 2 3 4 5 6 7 8 9 10 11 12 13 14 15 16 17 18
000
FTUS44 KLIX 231235 AAA
TAFMSY
TAF AMD
KMSY 231235Z 2313/2412 31010KT P6SM SCT005 SCT015
      TEMPO 2313/2315 BKN005
     FM231500 33011G18KT P6SM SKC
     FM240100 34007KT P6SM SKC
     FM240700 30006KT P6SM SKC
     FM241100 33010G18KT P6SM SKC=

USA.gov is the U.S. government's official web portal to all federal, state and local government web resources and services.